Everett, WA

3:43 PM PDT on August 27, 2014 (GMT -0700)
Snohomish County | Change Station
CLOSE
Current Station
Airport
Location: Everett,
Elevation: 604 ft
Nearby Weather Stations

Elev 604 ft 47.91 °N, 122.28 °W | Updated 50 minutes ago

Clear
Clear
79 °F
Feels Like 79 °F
N
7
Wind Variable Wind from West

Today
High -- | Low -- °F
--% Chance of Precip.
Yesterday
High -- | Low -- °F
Precip. -- in
6:20 AM 7:59 PM
Waxing Crescent, 5% visible
Pressure 30.04 in
Visibility 10.0 miles
Clouds Clear
Dew Point 59 °F
Humidity 50%
Rainfall 0.00 in
Snow Depth Not available.
UV 7 out of 12
Pollen 3.10 out of 12
PM2.5 Good
Flu Activity Not available.
METAR KPAE 272153Z 28006KT 10SM CLR 26/15 A3005 RMK AO2 SLP171 T02610150

More Conditions Fewer Conditions

Pressure 30.04 in
Visibility 10.0 miles
Clouds Clear
Dew Point 59 °F
Humidity 50%
Rainfall 0.00 in
Snow Depth Not available.
UV 7 out of 12
Pollen 3.10 out of 12
PM2.5 Good
Flu Activity Not available.
METAR KPAE 272153Z 28006KT 10SM CLR 26/15 A3005 RMK AO2 SLP171 T02610150

More Conditions Fewer Conditions

10-Day Weather Forecast

Almanac

Astronomy

Aug. 27, 2014 Rise Set
Actual Time 6:20 AM PDT 7:59 PM PDT
Civil Twilight 5:47 AM PDT 8:31 PM PDT
Nautical Twilight 5:07 AM PDT 9:11 PM PDT
Astronomical Twilight 4:23 AM PDT 9:55 PM PDT
Moon 8:33 AM PDT 8:40 PM PDT
Length of Visible Light 14h 44m
Length of Day
13h 39m
Tomorrow will be 3m 18s shorter.
Waxing Crescent, 5% of the Moon is Illuminated
Today
Waxing Crescent
Sep 2
First Quarter
Sep 8
Full
Sep 15
Last Quarter
Sep 24
New

Today's Extremes

State Highs State Lows

Community

WunderPhotos

Upload Photos

1,747,805 photos uploaded!

Nearby

Air Quality

  Air Quality AQ Index Pollutant
Yesterday Moderate
PM2.5
Current Good
PM2.5
Wednesday Good
OZONE
Wednesday Good
PM2.5
Thursday Good
OZONE
Thursday Good
PM2.5
Friday Good
OZONE
Friday Good
PM2.5
Saturday Good
OZONE
Saturday Good
PM2.5

Snow Depth

Station Depth Elevation
Dungeness 0 in 4100 ft
Olallie Meadows 0 in 3700 ft
Sasse Ridge 0 in 4200 ft
Burnt Mountain 0 in 4200 ft
Swamp Creek 0 in 4000 ft

Earthquake Activity

City Distance Mag. Time & Date
No recent earthquake activity has been reported nearby.
Minimum magnitude displayed is 2.5.

Coastal Water Temperatures

Place Temperature
Port Townsend, WA 54.0 °F
Seattle, WA 57.0 °F
Friday Harbor, WA 54.0 °F
Tacoma, WA 55.0 °F

Nearby Weather Stations